Time;durP1;ratioP1;P1;durP2;ratioP2;P2;SDS_P1;SDS_P2;PMS_P1;PMS_P2;Temp;Humidity;BMP_temperature;BMP_pressure;BME280_temperature;BME280_humidity;BME280_pressure;Samples;Min_cycle;Max_cycle;Signal;HPM_P1;HPM_P2
2021/09/14 00:01:26;;;;;;;19.75;13.93;;;;;;;23.79;42.42;94543.03;4973728;28;96891;-42
2021/09/14 00:03:52;;;;;;;18.63;16.63;;;;;;;23.75;42.11;94545.84;4972543;28;99869;-43
2021/09/14 00:06:17;;;;;;;18.33;15.00;;;;;;;23.77;42.52;94564.72;4972641;28;99518;-44
2021/09/14 00:08:42;;;;;;;11.88;9.52;;;;;;;23.75;41.69;94567.13;4973352;28;96799;-48
2021/09/14 00:11:08;;;;;;;12.65;8.85;;;;;;;23.74;41.77;94549.03;4973510;28;96837;-43
2021/09/14 00:13:33;;;;;;;13.20;8.07;;;;;;;23.63;41.72;94550.00;4971908;28;99671;-43
2021/09/14 00:15:59;;;;;;;11.68;8.57;;;;;;;23.65;41.48;94544.84;4972508;28;104482;-43
2021/09/14 00:18:24;;;;;;;11.48;8.90;;;;;;;23.66;41.80;94551.13;4973367;28;97688;-51
2021/09/14 00:20:50;;;;;;;18.77;14.48;;;;;;;23.63;41.76;94554.72;4973403;28;98387;-44
2021/09/14 00:23:15;;;;;;;17.02;14.60;;;;;;;23.62;41.60;94548.44;4972958;28;99833;-45
2021/09/14 00:25:40;;;;;;;20.17;15.38;;;;;;;23.67;42.26;94550.72;4972722;28;98808;-43
2021/09/14 00:28:06;;;;;;;15.80;13.18;;;;;;;23.65;41.61;94538.53;4973109;28;96734;-45
2021/09/14 00:30:31;;;;;;;12.65;11.35;;;;;;;23.67;41.71;94550.72;4973343;28;97067;-44
2021/09/14 00:32:57;;;;;;;15.25;13.05;;;;;;;23.66;41.94;94549.16;4972538;28;99547;-43
2021/09/14 00:35:22;;;;;;;14.90;12.80;;;;;;;23.69;41.68;94558.53;4972613;28;100208;-46
2021/09/14 00:37:47;;;;;;;14.65;12.55;;;;;;;23.65;42.02;94558.63;4972225;28;98494;-44
2021/09/14 00:40:13;;;;;;;14.57;11.25;;;;;;;23.68;41.83;94559.75;4972617;28;98627;-47
2021/09/14 00:42:38;;;;;;;12.27;10.40;;;;;;;23.63;41.86;94555.50;4972532;28;98998;-46
2021/09/14 00:45:05;;;;;;;11.98;10.05;;;;;;;23.64;41.97;94556.28;4972855;28;97746;-42
2021/09/14 00:47:30;;;;;;;15.40;12.35;;;;;;;23.64;41.74;94562.59;4972645;28;96663;-45
2021/09/14 00:49:56;;;;;;;16.02;12.95;;;;;;;23.66;41.83;94562.94;4972958;28;96907;-46
2021/09/14 00:52:21;;;;;;;14.55;12.75;;;;;;;23.62;41.96;94559.47;4954878;28;99501;-43
2021/09/14 00:54:47;;;;;;;17.60;13.38;;;;;;;23.61;41.65;94557.91;4972748;28;99269;-43
2021/09/14 00:57:12;;;;;;;13.40;11.02;;;;;;;23.62;41.75;94553.97;4972918;28;96614;-43
2021/09/14 00:59:37;;;;;;;12.85;11.45;;;;;;;23.63;41.55;94555.50;4972855;28;97042;-45
2021/09/14 01:02:03;;;;;;;14.52;10.95;;;;;;;23.61;42.10;94552.41;4971581;28;99553;-43
2021/09/14 01:04:29;;;;;;;12.18;8.93;;;;;;;23.66;41.67;94560.19;4934361;28;99372;-41
2021/09/14 01:06:54;;;;;;;11.40;8.93;;;;;;;23.65;41.49;94558.63;4953142;28;96598;-41
2021/09/14 01:09:20;;;;;;;18.92;10.35;;;;;;;23.64;41.78;94568.09;4953198;28;97012;-42
2021/09/14 01:11:46;;;;;;;13.32;8.88;;;;;;;23.62;41.73;94564.19;4952875;28;97799;-42
2021/09/14 01:14:11;;;;;;;16.65;12.57;;;;;;;23.60;41.98;94561.88;4952745;28;99432;-44
2021/09/14 01:16:37;;;;;;;19.10;14.57;;;;;;;23.61;41.43;94557.91;4952876;28;96888;-43
2021/09/14 01:19:04;;;;;;;16.55;11.90;;;;;;;23.59;41.93;94554.78;4953628;28;97849;-41
2021/09/14 01:21:29;;;;;;;16.48;12.20;;;;;;;23.57;41.66;94553.66;4952785;28;97953;-41
2021/09/14 01:23:55;;;;;;;17.52;14.77;;;;;;;23.60;41.56;94556.34;4952718;28;99196;-42
2021/09/14 01:26:21;;;;;;;18.08;13.40;;;;;;;23.58;41.60;94553.25;4954650;28;96828;-44
2021/09/14 01:28:46;;;;;;;14.43;10.52;;;;;;;23.57;41.80;94554.44;4956599;28;96912;-42
2021/09/14 01:31:12;;;;;;;14.18;11.55;;;;;;;23.57;41.51;94557.19;4955817;28;99795;-41
2021/09/14 01:33:37;;;;;;;13.32;11.00;;;;;;;23.55;41.82;94554.09;4955984;28;103194;-46
2021/09/14 01:36:03;;;;;;;13.82;11.63;;;;;;;23.57;41.80;94557.19;4956556;28;96758;-42
2021/09/14 01:38:28;;;;;;;13.40;11.65;;;;;;;23.55;41.67;94556.84;4956333;28;96871;-42
2021/09/14 01:40:54;;;;;;;18.67;15.40;;;;;;;23.56;41.66;94555.63;4955650;28;99435;-42
2021/09/14 01:43:20;;;;;;;20.40;17.13;;;;;;;23.52;41.43;94554.91;4956052;28;99263;-46
2021/09/14 01:45:46;;;;;;;24.30;19.27;;;;;;;23.58;41.38;94553.25;4956365;28;96681;-42
2021/09/14 01:48:11;;;;;;;16.38;14.25;;;;;;;23.61;41.56;94555.16;4956124;28;96905;-47
2021/09/14 01:50:37;;;;;;;14.07;12.55;;;;;;;23.60;41.38;94550.03;4955489;28;97814;-44
2021/09/14 01:53:03;;;;;;;14.27;12.40;;;;;;;23.57;41.64;94553.66;4955632;28;99154;-44
2021/09/14 01:55:29;;;;;;;15.82;13.32;;;;;;;23.62;41.46;94553.97;4955919;28;97098;-41
2021/09/14 01:57:56;;;;;;;16.50;12.93;;;;;;;23.59;41.41;94560.31;4955767;28;96928;-40
2021/09/14 02:00:24;;;;;;;16.75;14.35;;;;;;;23.61;41.29;94554.34;4955476;28;99625;-43
2021/09/14 02:03:19;;;;;;;15.95;13.90;;;;;;;23.60;41.09;94556.34;4955562;28;99355;-42
2021/09/14 02:59:32;;;;;;;8.05;7.25;;;;;;;23.56;43.50;94591.47;4974263;28;96790;-44
2021/09/14 03:01:57;;;;;;;9.02;8.10;;;;;;;23.56;43.09;94599.75;4975099;28;96605;-44
2021/09/14 03:04:22;;;;;;;8.35;7.53;;;;;;;23.55;43.25;94598.19;4973595;28;100743;-43
2021/09/14 03:06:48;;;;;;;8.18;7.38;;;;;;;23.56;43.44;94599.75;4974475;28;99208;-42
2021/09/14 03:09:13;;;;;;;7.10;6.40;;;;;;;23.56;43.66;94594.22;4974097;28;98182;-42
2021/09/14 03:11:39;;;;;;;6.28;5.65;;;;;;;23.52;43.33;94588.00;4974492;28;96785;-42
2021/09/14 03:14:04;;;;;;;6.65;6.05;;;;;;;23.56;43.28;94594.22;4974271;28;99424;-42
2021/09/14 03:16:30;;;;;;;5.88;5.28;;;;;;;23.56;43.15;94594.22;4974316;28;104202;-42
2021/09/14 03:18:55;;;;;;;5.93;5.18;;;;;;;23.53;43.14;94589.56;4974569;28;96662;-42
2021/09/14 03:21:20;;;;;;;5.10;4.57;;;;;;;23.56;43.36;94599.75;4974697;28;97508;-42
2021/09/14 03:23:46;;;;;;;4.97;4.50;;;;;;;23.56;43.52;94598.94;4974237;28;99410;-44
2021/09/14 03:26:11;;;;;;;5.38;4.88;;;;;;;23.55;43.58;94595.44;4974299;28;99783;-45
2021/09/14 03:28:37;;;;;;;5.65;5.03;;;;;;;23.55;43.37;94603.69;4974535;28;96930;-42
2021/09/14 03:31:03;;;;;;;5.13;4.70;;;;;;;23.51;43.65;94586.44;4974390;28;96669;-44
2021/09/14 03:33:29;;;;;;;4.95;4.47;;;;;;;23.54;43.79;94596.63;4973730;28;97578;-43
2021/09/14 03:35:54;;;;;;;4.80;4.40;;;;;;;23.54;44.10;94599.38;4973715;28;99369;-42
2021/09/14 03:38:19;;;;;;;5.18;4.68;;;;;;;23.50;43.33;94593.16;4974423;28;96629;-45
2021/09/14 03:40:45;;;;;;;4.78;4.38;;;;;;;23.53;43.75;94601.38;4974104;28;96948;-43
2021/09/14 03:43:12;;;;;;;3.95;3.65;;;;;;;23.52;43.25;94605.34;4973700;28;104756;-47
2021/09/14 03:45:38;;;;;;;4.10;3.80;;;;;;;23.53;43.60;94606.09;4973792;28;99288;-44
2021/09/14 03:48:04;;;;;;;4.47;3.70;;;;;;;23.53;43.45;94606.09;4973787;28;96663;-43
2021/09/14 03:50:29;;;;;;;3.88;3.58;;;;;;;23.53;43.56;94617.13;4974019;28;96889;-42
2021/09/14 03:52:54;;;;;;;3.53;3.22;;;;;;;23.53;43.97;94608.84;4973575;28;102241;-42
2021/09/14 03:55:20;;;;;;;3.63;3.33;;;;;;;23.53;43.91;94612.41;4973530;28;99208;-43
2021/09/14 03:57:45;;;;;;;2.95;2.75;;;;;;;23.52;43.57;94615.56;4973054;28;97822;-42
2021/09/14 04:00:11;;;;;;;3.40;3.10;;;;;;;23.52;43.61;94616.34;4973888;28;97044;-43
2021/09/14 04:02:49;;;;;;;3.70;3.28;;;;;;;23.51;44.19;94619.50;4973294;28;99445;-42
2021/09/14 04:10:37;;;;;;;3.10;2.90;;;;;;;23.51;43.96;94630.53;4956943;28;96836;-43
2021/09/14 04:13:02;;;;;;;3.33;3.08;;;;;;;23.52;44.17;94634.84;4973315;28;99451;-42
2021/09/14 04:15:27;;;;;;;3.13;2.92;;;;;;;23.50;43.75;94640.81;4973966;28;99543;-44
2021/09/14 04:17:53;;;;;;;2.72;2.53;;;;;;;23.51;43.98;94641.56;4973549;28;96800;-42
2021/09/14 04:20:18;;;;;;;3.30;3.00;;;;;;;23.51;43.74;94644.31;4973719;28;96915;-43
2021/09/14 04:22:44;;;;;;;3.10;2.90;;;;;;;23.50;43.55;94646.31;4972573;28;99803;-42
2021/09/14 04:25:10;;;;;;;2.90;2.70;;;;;;;23.51;44.04;94644.31;4973154;28;99026;-44
2021/09/14 04:27:35;;;;;;;2.97;2.78;;;;;;;23.46;43.78;94644.78;4973519;28;96671;-42
2021/09/14 04:30:00;;;;;;;2.70;2.50;;;;;;;23.47;43.88;94646.34;4973521;28;96954;-44
2021/09/14 04:32:26;;;;;;;2.90;2.70;;;;;;;23.50;43.83;94651.03;4973074;28;99238;-43
2021/09/14 04:34:51;;;;;;;3.70;2.65;;;;;;;23.50;43.97;94645.53;4973191;28;97647;-42
2021/09/14 04:37:17;;;;;;;2.80;2.60;;;;;;;23.50;43.88;94645.53;4972920;28;97799;-43
2021/09/14 04:39:42;;;;;;;2.67;2.47;;;;;;;23.50;44.31;94645.53;4973669;28;96955;-43
2021/09/14 04:42:08;;;;;;;2.28;2.17;;;;;;;23.50;43.82;94645.53;4972890;28;99439;-43
2021/09/14 04:44:33;;;;;;;2.45;2.30;;;;;;;23.50;43.54;94640.81;4972943;28;99169;-42
2021/09/14 04:46:58;;;;;;;2.60;2.40;;;;;;;23.50;43.55;94646.31;4972605;28;96769;-43
2021/09/14 04:49:24;;;;;;;2.50;2.30;;;;;;;23.50;43.87;94651.03;4973021;28;97975;-42
2021/09/14 04:51:49;;;;;;;2.38;2.17;;;;;;;23.50;43.95;94651.03;4972723;28;100454;-42
2021/09/14 04:54:15;;;;;;;2.30;2.10;;;;;;;23.50;44.02;94651.03;4972523;28;107289;-45
2021/09/14 04:56:40;;;;;;;2.65;2.20;;;;;;;23.50;43.65;94651.03;4973420;28;96747;-45
2021/09/14 04:59:05;;;;;;;2.47;2.28;;;;;;;23.50;44.02;94646.31;4973152;28;96811;-43
2021/09/14 05:01:31;;;;;;;2.00;1.90;;;;;;;23.50;43.81;94645.53;4971867;28;100945;-46
2021/09/14 05:03:56;;;;;;;2.40;2.20;;;;;;;23.51;43.59;94652.59;4972855;28;99287;-42
2021/09/14 05:06:22;;;;;;;2.00;1.85;;;;;;;23.51;44.22;94658.09;4972856;28;96910;-41
2021/09/14 05:08:47;;;;;;;2.10;2.00;;;;;;;23.50;43.84;94657.34;4973047;28;96913;-43
2021/09/14 05:11:13;;;;;;;3.25;1.80;;;;;;;23.50;43.73;94662.84;4972410;28;105845;-42
2021/09/14 05:13:39;;;;;;;2.65;2.03;;;;;;;23.51;43.90;94663.63;4972586;28;99435;-44
2021/09/14 05:16:04;;;;;;;2.42;2.22;;;;;;;23.47;43.88;94660.13;4972652;28;96673;-42
2021/09/14 05:18:30;;;;;;;2.40;2.20;;;;;;;23.51;44.24;94663.63;4972945;28;97031;-43
2021/09/14 05:20:56;;;;;;;2.35;2.15;;;;;;;23.46;43.69;94664.09;4972459;28;99017;-41
2021/09/14 05:23:32;;;;;;;2.13;2.03;;;;;;;23.50;44.32;94667.56;4972518;28;99072;-43
2021/09/14 05:25:59;;;;;;;2.20;2.00;;;;;;;23.50;44.03;94667.56;4972774;28;96645;-42
2021/09/14 05:28:25;;;;;;;2.00;1.90;;;;;;;23.49;43.83;94672.31;4973160;28;97029;-45
2021/09/14 05:30:50;;;;;;;1.90;1.80;;;;;;;23.50;44.30;94673.09;4972137;28;99029;-44
2021/09/14 05:33:16;;;;;;;2.13;2.03;;;;;;;23.49;44.31;94677.03;4954801;28;99773;-43
2021/09/14 05:35:45;;;;;;;3.15;1.70;;;;;;;23.50;44.25;94679.41;4972267;28;96725;-42
2021/09/14 05:38:12;;;;;;;2.15;2.00;;;;;;;23.50;44.05;94678.59;4955123;28;96977;-42
2021/09/14 05:40:37;;;;;;;1.60;1.50;;;;;;;23.50;44.05;94681.34;4972213;28;99532;-42
2021/09/14 05:43:06;;;;;;;2.20;1.73;;;;;;;23.50;44.06;94684.13;4954944;28;97121;-43
2021/09/14 05:45:32;;;;;;;2.05;1.90;;;;;;;23.49;44.31;94677.84;4972201;28;96775;-42
2021/09/14 05:47:57;;;;;;;1.90;1.80;;;;;;;23.50;44.30;94684.13;4972600;28;96937;-42
2021/09/14 05:50:23;;;;;;;2.03;1.80;;;;;;;23.50;44.60;94692.38;4972080;28;99606;-44
2021/09/14 05:52:48;;;;;;;3.00;2.05;;;;;;;23.49;44.26;94694.38;4972581;28;99444;-43
2021/09/14 05:55:14;;;;;;;2.20;2.00;;;;;;;23.49;44.48;94693.56;4972490;28;96639;-44
2021/09/14 05:57:39;;;;;;;2.17;1.98;;;;;;;23.50;44.20;94695.13;4972381;28;96912;-42
2021/09/14 06:00:05;;;;;;;2.35;2.15;;;;;;;23.50;44.20;94697.91;4971442;28;99158;-43
2021/09/14 06:02:31;;;;;;;2.08;1.90;;;;;;;23.46;44.34;94688.91;4972217;28;99504;-42
2021/09/14 06:04:56;;;;;;;3.42;1.95;;;;;;;23.49;44.83;94694.38;4971656;28;96858;-46
2021/09/14 06:07:22;;;;;;;2.75;1.80;;;;;;;23.50;44.12;94695.13;4972314;28;96920;-42
2021/09/14 06:09:47;;;;;;;1.88;1.77;;;;;;;23.45;44.58;94692.84;4971675;28;104837;-42
2021/09/14 06:12:12;;;;;;;1.88;1.73;;;;;;;23.49;44.28;94699.88;4973563;28;100277;-42
2021/09/14 06:14:38;;;;;;;1.80;1.70;;;;;;;23.49;44.53;94702.63;4975363;28;96633;-43
2021/09/14 06:17:03;;;;;;;2.20;1.95;;;;;;;23.49;44.28;94704.59;4975619;28;96918;-42
2021/09/14 06:19:29;;;;;;;2.15;1.90;;;;;;;23.50;44.46;94697.91;4975095;28;99764;-46
2021/09/14 06:21:54;;;;;;;1.58;1.48;;;;;;;23.49;43.84;94693.56;4975062;28;99286;-44
2021/09/14 06:24:20;;;;;;;2.35;1.90;;;;;;;23.49;44.12;94693.56;4974828;28;96697;-44
2021/09/14 06:26:45;;;;;;;1.98;1.80;;;;;;;23.48;44.34;94697.53;4975221;28;96892;-42
2021/09/14 06:29:11;;;;;;;1.88;1.77;;;;;;;23.49;44.37;94696.34;4975011;28;99521;-44
2021/09/14 06:31:36;;;;;;;1.98;1.88;;;;;;;23.49;44.38;94690.81;4974781;28;98437;-44
2021/09/14 06:34:01;;;;;;;2.05;1.85;;;;;;;23.50;44.04;94695.13;4975286;28;96844;-42
2021/09/14 06:36:27;;;;;;;1.70;1.60;;;;;;;23.48;44.63;94689.25;4975137;28;96935;-43
2021/09/14 06:38:53;;;;;;;1.60;1.50;;;;;;;23.47;44.60;94687.69;4974984;28;99522;-42
2021/09/14 06:41:18;;;;;;;1.77;1.67;;;;;;;23.50;44.15;94701.44;4975172;28;103604;-43
2021/09/14 06:43:43;;;;;;;1.80;1.70;;;;;;;23.52;43.92;94698.25;4975127;28;96914;-42
2021/09/14 06:46:09;;;;;;;1.85;1.75;;;;;;;23.52;44.15;94692.75;4974975;28;96940;-44
2021/09/14 06:48:34;;;;;;;2.00;1.85;;;;;;;23.50;44.31;94700.66;4974218;28;99557;-42
2021/09/14 06:51:00;;;;;;;1.63;1.52;;;;;;;23.52;44.38;94703.78;4974512;28;99425;-42
2021/09/14 06:53:29;;;;;;;1.70;1.60;;;;;;;23.51;44.37;94696.69;4974900;28;96677;-42
2021/09/14 06:55:54;;;;;;;1.58;1.48;;;;;;;23.51;44.60;94707.72;4975208;28;97572;-46
2021/09/14 06:58:19;;;;;;;1.70;1.60;;;;;;;23.51;44.31;94707.72;4974760;28;98024;-44
2021/09/14 07:00:45;;;;;;;2.63;1.90;;;;;;;23.51;44.73;94707.72;4974390;28;99416;-43
2021/09/14 07:03:10;;;;;;;1.63;1.52;;;;;;;23.52;44.31;94712.03;4974704;28;96686;-46
2021/09/14 07:05:36;;;;;;;1.58;1.48;;;;;;;23.51;44.65;94707.72;4974606;28;97086;-44
2021/09/14 07:08:01;;;;;;;1.73;1.63;;;;;;;23.50;44.76;94711.69;4974710;28;99139;-42
2021/09/14 07:10:27;;;;;;;2.28;1.67;;;;;;;23.52;44.28;94720.31;4974272;28;99557;-42
2021/09/14 07:12:52;;;;;;;1.70;1.60;;;;;;;23.51;44.25;94713.25;4974027;28;96720;-43
2021/09/14 07:15:17;;;;;;;1.70;1.60;;;;;;;23.51;44.72;94707.72;4974509;28;96965;-42
2021/09/14 07:17:43;;;;;;;1.50;1.40;;;;;;;23.51;44.37;94708.53;4974153;28;99334;-44
2021/09/14 07:20:09;;;;;;;1.83;1.73;;;;;;;23.51;44.21;94718.75;4974176;28;99057;-43
2021/09/14 07:22:34;;;;;;;1.58;1.40;;;;;;;23.51;44.30;94718.75;4974222;28;96629;-42
2021/09/14 07:25:00;;;;;;;2.13;1.70;;;;;;;23.51;44.54;94718.75;4974198;28;96699;-42
2021/09/14 07:27:25;;;;;;;1.65;1.55;;;;;;;23.51;44.72;94721.50;4974032;28;99645;-44
2021/09/14 07:29:51;;;;;;;1.65;1.55;;;;;;;23.50;44.12;94717.97;4974641;28;97896;-41
2021/09/14 07:32:17;;;;;;;1.63;1.20;;;;;;;23.51;45.07;94718.75;4973943;28;96733;-44
2021/09/14 07:34:42;;;;;;;4.68;1.80;;;;;;;23.56;44.40;94721.03;4973157;28;96921;-43
2021/09/14 07:37:08;;;;;;;1.90;1.80;;;;;;;23.58;44.11;94718.66;4955673;28;99830;-42
2021/09/14 07:39:33;;;;;;;2.15;1.67;;;;;;;23.59;44.20;94716.66;4973500;28;99811;-43
2021/09/14 07:41:59;;;;;;;2.30;1.85;;;;;;;23.58;44.46;94713.13;4974051;28;97321;-42
2021/09/14 07:44:24;;;;;;;3.70;1.80;;;;;;;23.54;44.39;94706.88;4973742;28;96871;-42
2021/09/14 07:46:49;;;;;;;1.70;1.60;;;;;;;23.58;44.48;94715.88;4973293;28;99476;-43
2021/09/14 07:49:15;;;;;;;1.77;1.40;;;;;;;23.58;44.20;94713.13;4973059;28;99514;-43
2021/09/14 07:51:40;;;;;;;2.70;2.25;;;;;;;23.58;44.71;94717.84;4973727;28;96793;-43
2021/09/14 07:54:06;;;;;;;3.65;2.03;;;;;;;23.62;44.58;94722.13;4974265;28;97075;-43
2021/09/14 07:56:31;;;;;;;4.82;2.25;;;;;;;23.59;44.77;94714.69;4973658;28;99484;-43
2021/09/14 07:58:57;;;;;;;2.35;1.95;;;;;;;23.58;44.63;94718.66;4973454;28;99178;-46
2021/09/14 08:01:22;;;;;;;3.17;1.98;;;;;;;23.58;45.16;94718.66;4973080;28;96801;-42
2021/09/14 08:03:47;;;;;;;2.42;2.08;;;;;;;23.57;45.08;94711.56;4973807;28;97035;-44
2021/09/14 08:06:13;;;;;;;2.63;2.42;;;;;;;23.57;45.35;94722.59;4972957;28;99276;-44
2021/09/14 08:08:38;;;;;;;2.63;2.42;;;;;;;23.57;45.35;94714.31;4973259;28;101104;-42
2021/09/14 08:11:04;;;;;;;2.70;2.50;;;;;;;23.56;45.61;94715.53;4973719;28;96740;-43
2021/09/14 08:13:29;;;;;;;2.70;2.50;;;;;;;23.56;45.34;94715.53;4973841;28;96619;-43
2021/09/14 08:15:55;;;;;;;3.17;2.72;;;;;;;23.55;44.95;94711.22;4973327;28;99489;-44
2021/09/14 08:18:20;;;;;;;3.80;3.00;;;;;;;23.53;45.21;94708.09;4973681;28;98445;-42
2021/09/14 08:20:46;;;;;;;3.00;2.80;;;;;;;23.54;45.55;94706.88;4973738;28;96577;-43
2021/09/14 08:23:11;;;;;;;3.25;2.95;;;;;;;23.53;45.36;94702.56;4973492;28;97104;-43
2021/09/14 08:25:36;;;;;;;3.20;2.90;;;;;;;23.53;45.12;94699.81;4972949;28;101754;-43
2021/09/14 08:28:02;;;;;;;2.83;2.63;;;;;;;23.53;44.81;94705.34;4973500;28;97902;-43
2021/09/14 08:30:27;;;;;;;3.00;2.70;;;;;;;23.51;44.78;94697.50;4973540;28;96796;-45
2021/09/14 08:32:53;;;;;;;3.78;3.20;;;;;;;23.51;45.03;94699.47;4972960;28;96876;-43
2021/09/14 08:35:19;;;;;;;4.45;2.63;;;;;;;23.52;45.39;94693.53;4971910;28;102147;-45
2021/09/14 08:37:44;;;;;;;3.05;2.85;;;;;;;23.52;45.13;94692.75;4973097;28;98420;-42
2021/09/14 08:40:10;;;;;;;3.15;2.60;;;;;;;23.53;45.27;94694.31;4973280;28;96632;-41
2021/09/14 08:42:36;;;;;;;3.33;3.03;;;;;;;23.48;45.18;94681.78;4973883;28;97888;-43
2021/09/14 08:45:07;;;;;;;3.28;2.97;;;;;;;23.53;45.28;94686.03;4972882;28;98597;-46
2021/09/14 08:47:32;;;;;;;3.97;3.40;;;;;;;23.54;45.37;94690.34;4972708;28;99884;-48
2021/09/14 08:49:58;;;;;;;2.88;2.67;;;;;;;23.54;45.27;94685.63;4973033;28;96595;-44
2021/09/14 08:52:23;;;;;;;4.75;3.25;;;;;;;23.53;45.05;94678.56;4973180;28;96965;-43
2021/09/14 08:54:48;;;;;;;3.47;3.13;;;;;;;23.54;45.31;94680.13;4972834;28;99354;-43
2021/09/14 08:57:14;;;;;;;4.15;3.20;;;;;;;23.56;45.04;94671.41;4955271;28;99211;-42
2021/09/14 08:59:44;;;;;;;4.47;3.10;;;;;;;23.56;45.09;94676.94;4973189;28;96609;-43
2021/09/14 09:02:09;;;;;;;3.22;2.83;;;;;;;23.57;45.20;94670.22;4972818;28;96774;-42
2021/09/14 09:04:35;;;;;;;3.67;3.25;;;;;;;23.57;45.12;94672.97;4972514;28;98192;-42
2021/09/14 09:07:00;;;;;;;4.25;3.20;;;;;;;23.58;45.57;94670.97;4972512;28;101899;-43
2021/09/14 09:09:26;;;;;;;4.28;3.28;;;;;;;23.57;45.01;94667.47;4972887;28;96669;-42
2021/09/14 09:12:05;;;;;;;3.67;3.35;;;;;;;23.57;45.48;94667.47;4972847;28;96890;-43
2021/09/14 09:14:41;;;;;;;4.72;3.72;;;;;;;23.59;44.97;94665.06;4972061;28;99501;-44
2021/09/14 09:17:08;;;;;;;4.82;3.38;;;;;;;23.59;45.20;94670.59;4972609;28;99295;-43
2021/09/14 09:19:33;;;;;;;3.88;3.28;;;;;;;23.61;45.02;94662.66;4972789;28;96776;-43
2021/09/14 09:21:59;;;;;;;4.57;3.17;;;;;;;23.61;45.60;94657.16;4972736;28;96882;-44
2021/09/14 09:24:24;;;;;;;3.47;3.17;;;;;;;23.62;44.90;94658.72;4972355;28;99023;-42
2021/09/14 09:26:50;;;;;;;3.92;3.50;;;;;;;23.63;45.24;94660.28;4972738;28;97849;-42
2021/09/14 09:29:23;;;;;;;4.05;3.30;;;;;;;23.64;44.74;94656.31;4972544;28;96718;-43
2021/09/14 09:31:49;;;;;;;4.00;3.60;;;;;;;23.65;45.17;94662.59;4973045;28;96965;-43
2021/09/14 09:34:14;;;;;;;4.50;3.50;;;;;;;23.62;44.97;94646.91;4972271;28;98535;-41
2021/09/14 09:36:41;;;;;;;3.40;3.10;;;;;;;23.66;44.87;94647.63;4972272;28;99296;-42
2021/09/14 09:39:11;;;;;;;3.47;3.17;;;;;;;23.63;45.14;94652.00;4972043;28;96755;-43
2021/09/14 09:41:40;;;;;;;4.07;3.35;;;;;;;23.68;45.24;94651.53;4972408;28;96797;-45
2021/09/14 09:44:07;;;;;;;4.38;3.80;;;;;;;23.69;44.96;94652.28;4972215;28;99136;-42
2021/09/14 09:46:33;;;;;;;4.07;3.55;;;;;;;23.68;44.99;94640.50;4973167;28;99268;-43
2021/09/14 09:49:01;;;;;;;3.85;3.28;;;;;;;23.68;44.93;94643.25;4975906;28;96760;-42
2021/09/14 09:51:26;;;;;;;3.90;3.50;;;;;;;23.69;44.93;94642.06;4975904;28;96900;-42
2021/09/14 09:53:52;;;;;;;4.65;3.60;;;;;;;23.72;45.13;94650.69;4957854;28;103779;-47
2021/09/14 09:56:17;;;;;;;5.68;3.80;;;;;;;23.71;44.83;94649.13;4942392;28;97871;-43
2021/09/14 09:58:44;;;;;;;3.83;3.38;;;;;;;23.67;44.79;94638.94;4975764;28;96724;-41
2021/09/14 10:01:17;;;;;;;3.90;3.50;;;;;;;23.73;44.71;94646.72;4942555;28;96987;-45
2021/09/14 10:04:00;;;;;;;4.68;3.78;;;;;;;23.73;44.73;94636.47;4957698;28;99584;-42
2021/09/14 10:06:52;;;;;;;4.05;3.55;;;;;;;23.74;45.25;94637.25;4975176;28;99267;-44
2021/09/14 10:09:20;;;;;;;3.97;3.58;;;;;;;23.73;44.48;94636.47;4953499;28;97208;-42
2021/09/14 10:11:53;;;;;;;3.88;3.58;;;;;;;23.76;44.32;94629.34;4975482;28;96846;-43
2021/09/14 10:14:19;;;;;;;3.40;3.13;;;;;;;23.77;44.85;94625.41;4975575;28;99529;-42
2021/09/14 10:16:48;;;;;;;3.22;2.92;;;;;;;23.76;44.77;94629.34;4975179;28;102209;-43
2021/09/14 10:19:18;;;;;;;3.80;3.38;;;;;;;23.76;44.33;94623.84;4958605;28;96747;-42
2021/09/14 10:21:45;;;;;;;3.35;3.05;;;;;;;23.81;44.70;94626.88;4957819;28;97028;-43
2021/09/14 10:24:18;;;;;;;2.97;2.63;;;;;;;23.81;44.29;94617.84;4957569;28;99522;-43
2021/09/14 10:26:43;;;;;;;2.88;2.67;;;;;;;23.85;44.53;94621.28;4975200;28;97532;-42
2021/09/14 10:29:13;;;;;;;2.95;2.72;;;;;;;23.86;44.29;94622.06;4957654;28;96904;-42
2021/09/14 10:31:38;;;;;;;3.10;2.80;;;;;;;23.81;44.26;94609.56;4975162;28;96699;-44
2021/09/14 10:34:06;;;;;;;2.72;2.53;;;;;;;23.87;44.35;94621.63;4974685;28;99699;-43
2021/09/14 10:36:32;;;;;;;2.70;2.50;;;;;;;23.88;44.38;94614.94;4974832;28;99716;-44
2021/09/14 10:38:57;;;;;;;2.50;2.22;;;;;;;23.88;44.73;94609.41;4975251;28;96834;-43
2021/09/14 10:41:40;;;;;;;3.35;2.20;;;;;;;23.92;44.55;94599.09;4975047;28;96922;-42
2021/09/14 10:44:08;;;;;;;3.30;2.25;;;;;;;23.87;44.52;94602.34;4959755;28;99451;-44
2021/09/14 10:46:35;;;;;;;3.05;2.08;;;;;;;23.92;44.53;94607.38;4957894;28;99131;-42
2021/09/14 10:49:00;;;;;;;2.55;2.35;;;;;;;23.93;44.62;94606.16;4975062;28;96829;-45
2021/09/14 10:51:26;;;;;;;2.30;2.10;;;;;;;23.96;44.31;94599.03;4957130;28;97151;-46
2021/09/14 10:53:52;;;;;;;2.05;1.95;;;;;;;23.96;44.18;94599.81;4974254;28;99356;-44
2021/09/14 10:56:18;;;;;;;2.17;1.98;;;;;;;23.97;44.62;94595.84;4957092;28;99739;-42
2021/09/14 10:58:44;;;;;;;2.38;2.17;;;;;;;24.00;44.35;94599.78;4973977;28;96722;-43
2021/09/14 11:01:13;;;;;;;2.30;2.10;;;;;;;23.93;44.55;94586.84;4974630;28;97008;-50
2021/09/14 11:03:39;;;;;;;2.03;1.92;;;;;;;24.01;44.45;94600.56;4956707;28;100122;-45
2021/09/14 11:06:08;;;;;;;2.28;2.08;;;;;;;24.01;44.46;94600.56;4935327;28;100679;-48
2021/09/14 11:08:33;;;;;;;2.47;2.30;;;;;;;24.00;44.35;94599.78;4934566;28;96892;-47
2021/09/14 11:11:00;;;;;;;1.92;1.83;;;;;;;24.02;44.41;94602.09;4934772;28;96886;-47
2021/09/14 11:13:27;;;;;;;2.15;2.03;;;;;;;23.96;44.47;94594.28;4935310;28;99860;-47
2021/09/14 11:16:11;;;;;;;2.20;2.00;;;;;;;23.97;44.50;94592.31;4935258;28;100465;-50
2021/09/14 11:18:36;;;;;;;1.90;1.80;;;;;;;24.03;44.59;94595.38;4933714;28;96767;-45
2021/09/14 11:21:12;;;;;;;2.90;2.15;;;;;;;24.01;44.42;94595.03;4935369;28;97003;-46
2021/09/14 11:23:41;;;;;;;1.73;1.63;;;;;;;24.04;44.32;94594.19;4933861;28;99454;-47
2021/09/14 11:26:07;;;;;;;2.30;1.95;;;;;;;24.02;44.57;94591.06;4934896;28;100245;-53
2021/09/14 11:28:33;;;;;;;2.15;1.95;;;;;;;23.94;44.41;94573.84;4935563;28;96773;-51
2021/09/14 11:31:00;;;;;;;1.75;1.65;;;;;;;24.06;44.42;94586.25;4917922;28;97014;-47
2021/09/14 11:33:26;;;;;;;1.50;1.42;;;;;;;24.08;44.61;94586.63;4935016;28;99761;-44
2021/09/14 11:35:53;;;;;;;2.95;1.70;;;;;;;24.08;44.42;94589.38;4934174;28;99791;-48
2021/09/14 11:38:21;;;;;;;1.77;1.67;;;;;;;24.10;44.33;94581.47;4934009;28;96774;-44
2021/09/14 11:41:11;;;;;;;1.52;1.45;;;;;;;24.08;44.32;94572.81;4935097;28;96934;-47
2021/09/14 11:43:37;;;;;;;1.40;1.30;;;;;;;24.10;44.30;94575.94;4933081;28;99062;-48
2021/09/14 11:46:16;;;;;;;1.60;1.50;;;;;;;24.14;44.40;94576.66;4934937;28;97465;-46
2021/09/14 11:48:54;;;;;;;1.90;1.80;;;;;;;24.18;44.41;94577.34;4935055;28;96704;-43
2021/09/14 11:51:20;;;;;;;1.60;1.50;;;;;;;24.16;44.44;94574.25;4934167;28;96885;-43
2021/09/14 11:53:49;;;;;;;1.90;1.60;;;;;;;24.19;44.73;94573.41;4934350;28;106021;-44
2021/09/14 11:56:16;;;;;;;1.67;1.58;;;;;;;24.18;44.45;94577.34;4934802;28;97783;-43
2021/09/14 11:58:46;;;;;;;5.82;2.17;;;;;;;24.21;44.51;94568.22;4934833;28;96842;-42
2021/09/14 12:01:11;;;;;;;2.33;1.80;;;;;;;24.22;44.71;94571.75;4935301;28;96942;-44
2021/09/14 12:03:57;;;;;;;2.22;2.03;;;;;;;24.23;44.26;94567.78;4934301;28;99505;-46
2021/09/14 12:06:27;;;;;;;1.90;1.80;;;;;;;24.22;44.72;94561.50;4933875;28;99339;-44
2021/09/14 12:08:52;;;;;;;1.60;1.50;;;;;;;24.23;44.51;94565.81;4932370;28;97401;-47
2021/09/14 12:11:27;;;;;;;1.60;1.50;;;;;;;24.24;44.48;94561.88;4930955;28;96969;-45
2021/09/14 12:13:58;;;;;;;1.70;1.60;;;;;;;24.25;44.59;94565.38;4932683;28;99420;-43
2021/09/14 12:16:32;;;;;;;1.93;1.67;;;;;;;24.23;44.35;94552.03;4932742;28;99738;-44
2021/09/14 12:19:00;;;;;;;1.63;1.50;;;;;;;24.25;44.22;94563.41;4933267;28;97060;-45
2021/09/14 12:21:26;;;;;;;1.50;1.40;;;;;;;24.26;44.40;94551.19;4933322;28;97047;-46
2021/09/14 12:23:52;;;;;;;2.28;1.95;;;;;;;24.26;43.91;94544.88;4933687;28;99457;-44
2021/09/14 12:26:28;;;;;;;1.92;1.50;;;;;;;24.28;44.22;94542.47;4934849;28;97316;-45